Time;durP1;ratioP1;P1;durP2;ratioP2;P2;SDS_P1;SDS_P2;PMS_P1;PMS_P2;Temp;Humidity;BMP_temperature;BMP_pressure;BME280_temperature;BME280_humidity;BME280_pressure;Samples;Min_cycle;Max_cycle;Signal;HPM_P1;HPM_P2
2021/08/11 00:00:10;;;;;;;0.00;0.00;;;15.00;99.90;;;;;;5048493;28;20045;-83
2021/08/11 00:02:57;;;;;;;0.00;0.00;;;15.10;99.90;;;;;;5051196;28;20132;-82
2021/08/11 00:05:46;;;;;;;0.00;0.00;;;15.10;99.90;;;;;;5034670;28;20093;-84
2021/08/11 00:08:33;;;;;;;0.00;0.00;;;15.20;99.90;;;;;;5031882;28;20040;-83
2021/08/11 00:11:22;;;;;;;0.00;0.00;;;15.20;99.90;;;;;;5037628;28;20730;-83
2021/08/11 00:14:09;;;;;;;0.00;0.00;;;15.30;99.90;;;;;;5032243;28;20162;-82
2021/08/11 00:16:56;;;;;;;0.00;0.00;;;15.30;99.90;;;;;;5030922;28;20041;-83
2021/08/11 00:19:43;;;;;;;0.00;0.00;;;15.30;99.90;;;;;;5036549;28;20128;-83
2021/08/11 00:22:30;;;;;;;0.00;0.00;;;15.30;99.90;;;;;;5032683;28;20061;-83
2021/08/11 00:25:18;;;;;;;0.00;0.00;;;;;;;;;;5050024;28;20128;-82
2021/08/11 00:28:07;;;;;;;0.00;0.00;;;15.30;99.90;;;;;;5049674;28;20557;-82
2021/08/11 00:30:54;;;;;;;0.00;0.00;;;15.20;99.90;;;;;;5046453;28;20041;-83
2021/08/11 00:33:41;;;;;;;0.00;0.00;;;15.20;99.90;;;;;;5049009;28;20063;-83
2021/08/11 00:36:28;;;;;;;0.00;0.00;;;15.20;99.90;;;;;;5033615;28;20131;-83
2021/08/11 00:39:15;;;;;;;0.00;0.00;;;15.20;99.90;;;;;;5035704;28;20049;-83
2021/08/11 00:42:03;;;;;;;0.00;0.00;;;15.20;99.90;;;;;;5031134;28;20068;-83
2021/08/11 00:44:52;;;;;;;0.00;0.00;;;15.10;99.90;;;;;;5035914;28;20041;-83
2021/08/11 00:47:39;;;;;;;0.00;0.00;;;15.10;99.90;;;;;;5051643;28;20041;-84
2021/08/11 00:50:27;;;;;;;0.00;0.00;;;15.10;99.90;;;;;;5038408;28;20047;-83
2021/08/11 00:53:16;;;;;;;0.00;0.00;;;15.10;99.90;;;;;;5034865;28;20041;-83
2021/08/11 00:56:04;;;;;;;0.00;0.00;;;15.10;99.90;;;;;;5048981;28;20048;-83
2021/08/11 00:58:52;;;;;;;0.00;0.00;;;15.20;99.90;;;;;;5035779;28;20047;-83
2021/08/11 01:01:42;;;;;;;0.00;0.00;;;15.10;99.90;;;;;;5050596;28;20033;-83
2021/08/11 01:04:29;;;;;;;0.00;0.00;;;15.00;99.90;;;;;;5034495;28;20073;-84
2021/08/11 01:07:18;;;;;;;0.00;0.00;;;15.00;99.90;;;;;;5035198;28;20074;-83
2021/08/11 01:10:07;;;;;;;0.00;0.00;;;15.00;99.90;;;;;;5046960;28;20172;-83
2021/08/11 01:12:55;;;;;;;0.00;0.00;;;14.90;99.90;;;;;;5037389;28;20492;-83
2021/08/11 01:15:46;;;;;;;0.00;0.00;;;14.90;99.90;;;;;;5033380;28;20441;-83
2021/08/11 01:18:34;;;;;;;0.00;0.00;;;14.80;99.90;;;;;;5036713;28;20037;-83
2021/08/11 01:21:29;;;;;;;0.00;0.00;;;14.80;99.90;;;;;;5034672;28;20057;-82
2021/08/11 01:24:26;;;;;;;0.00;0.00;;;14.80;99.90;;;;;;5035216;28;20037;-83
2021/08/11 01:27:29;;;;;;;0.00;0.00;;;14.80;99.90;;;;;;5044975;28;20040;-83
2021/08/11 01:30:20;;;;;;;0.00;0.00;;;14.80;99.90;;;;;;5044514;28;20456;-82
2021/08/11 01:33:26;;;;;;;0.00;0.00;;;14.80;99.90;;;;;;5034526;28;20037;-83
2021/08/11 01:36:19;;;;;;;0.00;0.00;;;14.90;99.90;;;;;;5055368;28;20037;-84
2021/08/11 01:39:13;;;;;;;0.00;0.00;;;14.90;99.90;;;;;;5045425;28;20037;-83
2021/08/11 01:42:04;;;;;;;0.00;0.00;;;15.00;99.90;;;;;;5045953;28;20033;-83
2021/08/11 01:45:02;;;;;;;0.00;0.00;;;15.00;99.90;;;;;;5043573;28;20123;-82
2021/08/11 01:48:03;;;;;;;0.00;0.00;;;15.00;99.90;;;;;;5036657;28;20048;-83
2021/08/11 01:50:52;;;;;;;0.00;0.00;;;15.00;99.90;;;;;;5038374;28;20041;-83
2021/08/11 01:53:40;;;;;;;0.00;0.00;;;15.00;99.90;;;;;;5032663;28;20049;-83
2021/08/11 01:56:27;;;;;;;0.00;0.00;;;15.00;99.90;;;;;;5046151;28;20048;-84
2021/08/11 01:59:16;;;;;;;0.00;0.00;;;15.00;99.90;;;;;;5052984;28;20087;-83
2021/08/11 02:02:03;;;;;;;0.00;0.00;;;15.00;99.90;;;;;;5046896;28;20417;-83
2021/08/11 02:04:50;;;;;;;0.00;0.00;;;15.00;99.90;;;;;;5050213;28;20277;-82
2021/08/11 02:07:40;;;;;;;0.00;0.00;;;15.00;99.90;;;;;;5034153;28;20049;-83
2021/08/11 02:10:28;;;;;;;0.00;0.00;;;14.90;99.90;;;;;;5047544;28;20162;-82
2021/08/11 02:13:17;;;;;;;0.00;0.00;;;14.80;99.90;;;;;;5031490;28;20134;-81
2021/08/11 02:16:04;;;;;;;0.00;0.00;;;14.70;99.90;;;;;;5044929;28;20558;-84
2021/08/11 02:18:52;;;;;;;0.00;0.00;;;14.70;99.90;;;;;;5048917;28;20119;-84
2021/08/11 02:21:40;;;;;;;0.00;0.00;;;14.70;99.90;;;;;;5033955;28;20519;-83
2021/08/11 02:24:28;;;;;;;0.00;0.00;;;14.70;99.90;;;;;;5049939;28;20131;-83
2021/08/11 02:27:19;;;;;;;0.00;0.00;;;14.60;99.90;;;;;;5050523;28;20052;-82
2021/08/11 02:30:10;;;;;;;0.00;0.00;;;14.60;99.90;;;;;;5039286;28;20049;-84
2021/08/11 02:33:01;;;;;;;0.00;0.00;;;14.50;99.90;;;;;;5037715;28;20148;-81
2021/08/11 02:35:53;;;;;;;0.00;0.00;;;14.50;99.90;;;;;;5040522;28;20512;-83
2021/08/11 02:38:42;;;;;;;0.00;0.00;;;14.40;99.90;;;;;;5045517;28;20064;-83
2021/08/11 02:41:36;;;;;;;0.00;0.00;;;14.20;99.90;;;;;;5032723;28;20128;-84
2021/08/11 02:44:31;;;;;;;0.00;0.00;;;14.30;99.90;;;;;;5035943;28;20171;-83
2021/08/11 02:47:19;;;;;;;0.00;0.00;;;14.30;99.90;;;;;;5045870;28;20046;-82
2021/08/11 02:50:08;;;;;;;0.00;0.00;;;14.30;99.90;;;;;;5026980;28;20049;-84
2021/08/11 02:52:56;;;;;;;0.00;0.00;;;14.20;99.90;;;;;;5049302;28;20175;-83
2021/08/11 02:55:44;;;;;;;0.00;0.00;;;14.20;99.90;;;;;;5056485;28;20183;-82
2021/08/11 02:58:32;;;;;;;0.00;0.00;;;14.10;99.90;;;;;;5035217;28;20087;-84
2021/08/11 03:01:20;;;;;;;0.00;0.00;;;14.10;99.90;;;;;;5045658;28;20047;-83
2021/08/11 03:04:08;;;;;;;0.00;0.00;;;14.10;99.90;;;;;;5036226;28;20045;-83
2021/08/11 03:06:55;;;;;;;0.00;0.00;;;14.10;99.90;;;;;;5034803;28;20120;-83
2021/08/11 03:09:42;;;;;;;0.00;0.00;;;14.10;99.90;;;;;;5032917;28;20046;-83
2021/08/11 03:12:30;;;;;;;0.00;0.00;;;14.10;99.90;;;;;;5038624;28;20041;-83
2021/08/11 03:15:19;;;;;;;0.00;0.00;;;14.10;99.90;;;;;;5047491;28;20116;-82
2021/08/11 03:18:07;;;;;;;0.00;0.00;;;14.00;99.90;;;;;;5052088;28;20106;-82
2021/08/11 03:20:54;;;;;;;0.00;0.00;;;14.00;99.90;;;;;;5040414;28;20052;-80
2021/08/11 03:23:41;;;;;;;0.00;0.00;;;14.00;99.90;;;;;;5039425;28;20048;-83
2021/08/11 03:26:28;;;;;;;0.00;0.00;;;14.00;99.90;;;;;;5041176;28;20045;-81
2021/08/11 03:29:15;;;;;;;0.00;0.00;;;14.00;99.90;;;;;;5046831;28;20048;-83
2021/08/11 03:32:05;;;;;;;0.00;0.00;;;14.00;99.90;;;;;;5037183;28;20055;-83
2021/08/11 03:34:52;;;;;;;0.00;0.00;;;14.00;99.90;;;;;;5048891;28;20125;-83
2021/08/11 03:37:39;;;;;;;0.00;0.00;;;13.90;99.90;;;;;;5039952;28;20094;-83
2021/08/11 03:40:26;;;;;;;0.00;0.00;;;13.90;99.90;;;;;;5055995;28;20641;-82
2021/08/11 03:43:14;;;;;;;0.00;0.00;;;13.90;99.90;;;;;;5055113;28;20045;-82
2021/08/11 03:46:01;;;;;;;0.00;0.00;;;13.90;99.90;;;;;;5035890;28;20411;-83
2021/08/11 03:48:49;;;;;;;0.00;0.00;;;13.80;99.90;;;;;;5039605;28;20076;-83
2021/08/11 03:51:36;;;;;;;0.00;0.00;;;13.90;99.90;;;;;;5051300;28;20041;-82
2021/08/11 03:54:23;;;;;;;0.00;0.00;;;13.80;99.90;;;;;;5036522;28;20526;-82
2021/08/11 03:57:10;;;;;;;0.00;0.00;;;13.80;99.90;;;;;;5037288;28;20538;-83
2021/08/11 03:59:58;;;;;;;0.00;0.00;;;13.90;99.90;;;;;;5037491;28;20128;-83
2021/08/11 04:02:45;;;;;;;0.00;0.00;;;14.00;99.90;;;;;;5050683;28;20044;-83
2021/08/11 04:05:33;;;;;;;0.00;0.00;;;15.10;99.90;;;;;;5043804;28;20507;-82
2021/08/11 04:08:21;;;;;;;0.00;0.00;;;14.10;99.90;;;;;;5050676;28;20056;-83
2021/08/11 04:11:08;;;;;;;0.00;0.00;;;14.10;99.90;;;;;;5056476;28;20053;-83
2021/08/11 04:13:55;;;;;;;0.00;0.00;;;14.20;99.90;;;;;;5034836;28;20078;-83
2021/08/11 04:16:42;;;;;;;0.00;0.00;;;14.20;99.90;;;;;;5049799;28;20057;-83
2021/08/11 04:19:29;;;;;;;0.00;0.00;;;14.20;99.90;;;;;;5033444;28;20052;-83
2021/08/11 04:22:18;;;;;;;0.00;0.00;;;14.30;99.90;;;;;;5046171;28;20079;-82
2021/08/11 04:25:06;;;;;;;0.00;0.00;;;14.30;99.90;;;;;;5054025;28;20041;-83
2021/08/11 04:27:53;;;;;;;0.00;0.00;;;;;;;;;;5056496;28;20128;-83
2021/08/11 04:30:41;;;;;;;0.00;0.00;;;;;;;;;;5047046;28;20424;-82
2021/08/11 04:33:28;;;;;;;0.00;0.00;;;14.60;99.90;;;;;;5049437;28;20083;-81
2021/08/11 04:36:16;;;;;;;0.00;0.00;;;14.60;99.90;;;;;;5050428;28;20052;-84
2021/08/11 04:39:04;;;;;;;0.00;0.00;;;14.60;99.90;;;;;;5048273;28;20057;-83
2021/08/11 04:41:51;;;;;;;0.00;0.00;;;14.60;99.90;;;;;;5034540;28;20401;-84
2021/08/11 04:44:39;;;;;;;0.00;0.00;;;14.70;99.90;;;;;;5033107;28;20128;-83
2021/08/11 04:47:26;;;;;;;0.00;0.00;;;14.80;99.90;;;;;;5051816;28;20107;-83
2021/08/11 04:50:13;;;;;;;0.00;0.00;;;14.80;99.90;;;;;;5031484;28;20049;-83
2021/08/11 04:53:01;;;;;;;0.10;0.10;;;14.90;99.90;;;;;;5035567;28;20120;-83
2021/08/11 04:55:50;;;;;;;0.00;0.00;;;14.90;99.90;;;;;;5049143;28;20407;-83
2021/08/11 04:58:37;;;;;;;0.00;0.00;;;15.00;99.90;;;;;;5031726;28;20087;-83
2021/08/11 05:01:24;;;;;;;0.00;0.00;;;15.00;99.90;;;;;;5030809;28;20291;-83
2021/08/11 05:04:11;;;;;;;0.00;0.00;;;15.10;99.90;;;;;;5043764;28;20123;-83
2021/08/11 05:06:58;;;;;;;0.00;0.00;;;15.10;99.90;;;;;;5031789;28;20194;-83
2021/08/11 05:09:46;;;;;;;0.00;0.00;;;15.20;99.90;;;;;;5026683;28;20049;-83
2021/08/11 05:12:34;;;;;;;0.00;0.00;;;15.30;99.90;;;;;;5049641;28;20127;-83
2021/08/11 05:15:21;;;;;;;0.00;0.00;;;15.30;99.90;;;;;;5044093;28;20132;-83
2021/08/11 05:18:09;;;;;;;0.00;0.00;;;15.40;99.90;;;;;;5047484;28;20135;-83
2021/08/11 05:20:56;;;;;;;0.00;0.00;;;15.40;99.90;;;;;;5034299;28;20067;-84
2021/08/11 05:23:43;;;;;;;0.00;0.00;;;15.40;99.90;;;;;;5031672;28;20455;-84
2021/08/11 05:26:30;;;;;;;0.00;0.00;;;15.50;99.90;;;;;;5049419;28;20074;-84
2021/08/11 05:29:19;;;;;;;0.00;0.00;;;15.60;99.90;;;;;;5044255;28;20120;-84
2021/08/11 05:32:07;;;;;;;0.00;0.00;;;15.70;99.90;;;;;;5046802;28;20424;-83
2021/08/11 05:34:54;;;;;;;0.00;0.00;;;15.70;99.90;;;;;;5039564;28;20462;-81
2021/08/11 05:37:41;;;;;;;0.00;0.00;;;15.80;99.90;;;;;;5050684;28;20513;-83
2021/08/11 05:40:28;;;;;;;0.00;0.00;;;15.90;99.90;;;;;;5036612;28;20056;-82
2021/08/11 05:43:15;;;;;;;0.00;0.00;;;16.00;99.90;;;;;;5056692;28;20041;-84
2021/08/11 05:46:05;;;;;;;0.00;0.00;;;16.10;99.90;;;;;;5033271;28;20037;-81
2021/08/11 05:48:52;;;;;;;0.00;0.00;;;16.00;99.90;;;;;;5039559;28;20512;-83
2021/08/11 05:51:39;;;;;;;0.00;0.00;;;16.10;99.90;;;;;;5034346;28;20132;-83
2021/08/11 05:54:26;;;;;;;0.00;0.00;;;16.10;99.90;;;;;;5040877;28;20047;-83
2021/08/11 05:57:13;;;;;;;0.00;0.00;;;16.20;99.90;;;;;;5044083;28;20056;-83
2021/08/11 06:00:01;;;;;;;0.00;0.00;;;16.20;99.90;;;;;;5047406;28;20446;-83
2021/08/11 06:02:49;;;;;;;0.00;0.00;;;16.30;99.90;;;;;;5042384;28;20129;-83
2021/08/11 06:05:38;;;;;;;0.00;0.00;;;16.30;99.90;;;;;;5035179;28;20045;-83
2021/08/11 06:08:26;;;;;;;0.00;0.00;;;16.40;99.90;;;;;;5033182;28;20123;-82
2021/08/11 06:11:13;;;;;;;0.00;0.00;;;16.50;99.90;;;;;;5034594;28;20049;-84
2021/08/11 06:14:00;;;;;;;0.00;0.00;;;16.60;99.90;;;;;;5050566;28;20041;-82
2021/08/11 06:16:47;;;;;;;0.00;0.00;;;16.50;99.90;;;;;;5030176;28;20135;-83
2021/08/11 06:19:36;;;;;;;0.00;0.00;;;16.70;99.90;;;;;;5036396;28;20128;-82
2021/08/11 06:22:23;;;;;;;0.00;0.00;;;16.80;99.90;;;;;;5038372;28;20040;-84
2021/08/11 06:25:11;;;;;;;0.00;0.00;;;16.80;99.90;;;;;;5036568;28;20676;-83
2021/08/11 06:27:58;;;;;;;0.00;0.00;;;16.90;99.90;;;;;;5035664;28;20136;-83
2021/08/11 06:30:45;;;;;;;0.00;0.00;;;17.00;99.90;;;;;;5048305;28;20040;-83
2021/08/11 06:33:32;;;;;;;0.00;0.00;;;17.10;99.90;;;;;;5030863;28;20043;-83
2021/08/11 06:36:21;;;;;;;0.00;0.00;;;17.20;99.90;;;;;;5040565;28;20066;-83
2021/08/11 06:39:09;;;;;;;0.00;0.00;;;17.30;99.90;;;;;;5045065;28;20061;-84
2021/08/11 06:41:56;;;;;;;0.00;0.00;;;17.30;99.90;;;;;;5055278;28;20299;-83
2021/08/11 06:44:43;;;;;;;0.00;0.00;;;17.30;99.90;;;;;;5047664;28;20102;-83
2021/08/11 06:47:31;;;;;;;0.00;0.00;;;17.40;99.90;;;;;;5044891;28;20053;-81
2021/08/11 06:50:18;;;;;;;0.00;0.00;;;18.90;99.90;;;;;;5029195;28;20048;-82
2021/08/11 06:53:07;;;;;;;0.00;0.00;;;17.70;99.90;;;;;;5045288;28;20612;-83
2021/08/11 06:55:54;;;;;;;0.00;0.00;;;18.30;99.90;;;;;;5033306;28;20044;-81
2021/08/11 06:58:41;;;;;;;0.00;0.00;;;17.80;99.90;;;;;;5036515;28;20049;-83
2021/08/11 07:01:28;;;;;;;0.00;0.00;;;;;;;;;;5044034;28;20049;-83
2021/08/11 07:04:15;;;;;;;0.00;0.00;;;17.90;99.90;;;;;;5048947;28;20139;-82
2021/08/11 07:07:03;;;;;;;0.00;0.00;;;17.90;99.90;;;;;;5031605;28;20619;-84
2021/08/11 07:09:51;;;;;;;0.00;0.00;;;18.00;99.90;;;;;;5037981;28;20041;-83
2021/08/11 07:12:39;;;;;;;0.00;0.00;;;18.10;99.90;;;;;;5036666;28;20144;-84
2021/08/11 07:15:26;;;;;;;0.00;0.00;;;18.20;99.90;;;;;;5045732;28;20520;-82
2021/08/11 07:18:16;;;;;;;0.00;0.00;;;19.60;99.90;;;;;;5041493;28;20055;-83
2021/08/11 07:21:03;;;;;;;;;;;18.30;99.90;;;;;;5035722;28;20467;-84
2021/08/11 07:23:50;;;;;;;0.00;0.00;;;18.40;99.90;;;;;;5049131;28;20395;-83
2021/08/11 07:26:39;;;;;;;0.00;0.00;;;18.40;99.90;;;;;;5032497;28;20044;-84
2021/08/11 07:29:26;;;;;;;0.00;0.00;;;18.30;99.90;;;;;;5033540;28;20129;-84
2021/08/11 07:32:13;;;;;;;0.00;0.00;;;18.40;99.90;;;;;;5035412;28;20048;-83
2021/08/11 07:35:00;;;;;;;0.00;0.00;;;18.60;99.90;;;;;;5048619;28;20045;-84
2021/08/11 07:37:49;;;;;;;0.00;0.00;;;18.70;99.90;;;;;;5034248;28;20553;-84
2021/08/11 07:40:38;;;;;;;0.00;0.00;;;18.80;99.90;;;;;;5031397;28;20063;-84
2021/08/11 07:43:26;;;;;;;0.00;0.00;;;18.80;99.90;;;;;;5044051;28;20532;-84
2021/08/11 07:46:14;;;;;;;0.00;0.00;;;19.00;99.90;;;;;;5031929;28;20202;-84
2021/08/11 07:49:01;;;;;;;0.00;0.00;;;19.00;99.90;;;;;;5034262;28;20453;-84
2021/08/11 07:51:48;;;;;;;0.00;0.00;;;19.00;99.90;;;;;;5046160;28;20070;-83
2021/08/11 07:54:35;;;;;;;0.00;0.00;;;19.10;99.90;;;;;;5048878;28;20124;-84
2021/08/11 07:57:22;;;;;;;0.00;0.00;;;19.10;99.90;;;;;;5041585;28;20048;-82
2021/08/11 08:00:16;;;;;;;0.00;0.00;;;19.20;99.90;;;;;;5035581;28;20143;-84
2021/08/11 08:03:04;;;;;;;0.00;0.00;;;19.40;99.90;;;;;;5031411;28;20171;-83
2021/08/11 08:05:55;;;;;;;0.00;0.00;;;19.50;99.90;;;;;;5043597;28;20037;-83
2021/08/11 08:08:42;;;;;;;0.00;0.00;;;19.60;99.90;;;;;;5034817;28;20497;-82
2021/08/11 08:11:29;;;;;;;0.00;0.00;;;19.60;99.90;;;;;;5060397;28;20060;-84
2021/08/11 08:14:16;;;;;;;0.00;0.00;;;19.50;99.90;;;;;;5031259;28;20371;-84
2021/08/11 08:17:05;;;;;;;0.00;0.00;;;19.60;99.90;;;;;;5034958;28;20048;-83
2021/08/11 08:19:52;;;;;;;0.00;0.00;;;19.80;99.90;;;;;;5039495;28;20123;-84
2021/08/11 08:22:39;;;;;;;0.00;0.00;;;19.70;99.90;;;;;;5047703;28;20234;-83
2021/08/11 08:25:26;;;;;;;0.00;0.00;;;19.80;99.90;;;;;;5058994;28;20103;-84
2021/08/11 08:28:14;;;;;;;0.00;0.00;;;19.80;99.90;;;;;;5048550;28;20287;-84
2021/08/11 08:31:04;;;;;;;0.00;0.00;;;19.70;99.90;;;;;;5047426;28;20497;-84
2021/08/11 08:33:54;;;;;;;0.00;0.00;;;19.70;99.90;;;;;;5035816;28;20051;-84
2021/08/11 08:36:41;;;;;;;;;;;19.70;99.90;;;;;;5038067;28;20136;-83
2021/08/11 08:39:28;;;;;;;0.00;0.00;;;19.70;99.90;;;;;;5034351;28;20011;-84
2021/08/11 08:42:15;;;;;;;0.00;0.00;;;19.60;99.90;;;;;;5036682;28;20063;-84
2021/08/11 08:45:03;;;;;;;0.00;0.00;;;19.60;99.90;;;;;;5038906;28;20195;-81
2021/08/11 08:47:51;;;;;;;0.00;0.00;;;19.70;99.90;;;;;;5049845;28;20090;-81
2021/08/11 08:50:41;;;;;;;0.00;0.00;;;19.70;99.90;;;;;;5035160;28;20315;-84
2021/08/11 08:53:29;;;;;;;0.00;0.00;;;19.70;99.90;;;;;;5041629;28;20041;-84
2021/08/11 08:56:16;;;;;;;0.00;0.00;;;19.80;99.90;;;;;;5035136;28;20048;-83
2021/08/11 08:59:04;;;;;;;0.00;0.00;;;19.90;99.90;;;;;;5024995;28;20079;-82
2021/08/11 09:01:51;;;;;;;0.00;0.00;;;20.10;99.90;;;;;;5026397;28;20064;-84
2021/08/11 09:04:40;;;;;;;0.00;0.00;;;20.20;99.90;;;;;;5042186;28;20041;-84
2021/08/11 09:07:28;;;;;;;0.00;0.00;;;20.40;99.90;;;;;;5032899;28;20109;-85
2021/08/11 09:10:18;;;;;;;0.00;0.00;;;20.40;99.90;;;;;;5043015;28;20615;-85
2021/08/11 09:13:20;;;;;;;0.00;0.00;;;20.40;99.90;;;;;;5043211;28;20064;-80
2021/08/11 09:16:07;;;;;;;0.00;0.00;;;21.30;99.90;;;;;;5034579;28;20060;-84
2021/08/11 09:18:54;;;;;;;0.00;0.00;;;20.80;99.90;;;;;;5044921;28;20045;-84
2021/08/11 09:21:57;;;;;;;0.00;0.00;;;21.00;99.90;;;;;;5043073;28;20622;-84
2021/08/11 09:24:45;;;;;;;0.00;0.00;;;21.10;99.90;;;;;;5044811;28;20043;-82
2021/08/11 09:27:39;;;;;;;0.00;0.00;;;21.10;99.90;;;;;;5042657;28;20523;-84
2021/08/11 09:30:31;;;;;;;0.00;0.00;;;21.20;99.90;;;;;;5040420;28;20049;-83
2021/08/11 09:33:23;;;;;;;0.00;0.00;;;21.50;99.90;;;;;;5052150;28;20419;-82
2021/08/11 09:36:12;;;;;;;0.00;0.00;;;21.80;99.90;;;;;;5030778;28;20175;-85
2021/08/11 09:39:02;;;;;;;0.00;0.00;;;22.00;99.90;;;;;;5045518;28;20236;-83
2021/08/11 09:42:01;;;;;;;0.00;0.00;;;22.20;99.90;;;;;;5050656;28;20052;-84
2021/08/11 09:44:57;;;;;;;;;;;22.10;99.90;;;;;;5055172;28;20036;-84
2021/08/11 09:48:00;;;;;;;0.00;0.00;;;21.80;99.90;;;;;;5035347;28;20028;-84
2021/08/11 09:50:48;;;;;;;0.00;0.00;;;21.80;99.90;;;;;;5042975;28;20131;-84
2021/08/11 09:53:38;;;;;;;0.00;0.00;;;22.10;99.90;;;;;;5033318;28;20120;-85
2021/08/11 09:56:32;;;;;;;0.00;0.00;;;22.30;99.90;;;;;;5035175;28;20041;-85
2021/08/11 09:59:20;;;;;;;0.00;0.00;;;22.40;99.90;;;;;;5042184;28;20049;-82
2021/08/11 10:02:16;;;;;;;0.00;0.00;;;22.50;99.90;;;;;;5038698;28;20055;-85
2021/08/11 10:05:04;;;;;;;0.00;0.00;;;22.70;99.90;;;;;;5046617;28;20064;-85
2021/08/11 10:07:53;;;;;;;0.00;0.00;;;22.70;99.90;;;;;;5030802;28;20136;-84
2021/08/11 10:10:45;;;;;;;0.00;0.00;;;22.70;99.90;;;;;;5024955;28;20660;-84
2021/08/11 10:13:40;;;;;;;0.00;0.00;;;22.50;99.60;;;;;;5032928;28;20143;-82
2021/08/11 10:16:30;;;;;;;0.00;0.00;;;22.10;99.90;;;;;;5043228;28;20045;-85
2021/08/11 10:19:22;;;;;;;0.00;0.00;;;22.20;99.90;;;;;;5030843;28;20520;-84
2021/08/11 10:22:14;;;;;;;0.00;0.00;;;22.30;99.90;;;;;;5031751;28;20051;-85
2021/08/11 10:25:03;;;;;;;0.00;0.00;;;22.20;99.70;;;;;;5048194;28;20095;-81
2021/08/11 10:27:50;;;;;;;0.00;0.00;;;22.30;99.90;;;;;;5052425;28;20145;-82
2021/08/11 10:30:37;;;;;;;0.00;0.00;;;23.70;99.90;;;;;;5029291;28;20053;-84
2021/08/11 10:33:27;;;;;;;0.00;0.00;;;22.50;99.90;;;;;;5040980;28;20041;-85
2021/08/11 10:36:15;;;;;;;0.00;0.00;;;22.70;99.90;;;;;;5036104;28;20042;-82
2021/08/11 10:39:02;;;;;;;0.00;0.00;;;23.00;99.90;;;;;;5034916;28;20136;-82
2021/08/11 10:41:49;;;;;;;0.00;0.00;;;23.20;99.40;;;;;;5021902;28;20110;-83
2021/08/11 10:44:38;;;;;;;0.00;0.00;;;23.10;99.00;;;;;;5028850;28;20396;-84
2021/08/11 10:47:29;;;;;;;0.00;0.00;;;23.20;99.50;;;;;;5020810;28;20584;-85
2021/08/11 10:50:18;;;;;;;0.00;0.00;;;23.20;98.90;;;;;;5033218;28;20053;-84
2021/08/11 10:53:09;;;;;;;0.00;0.00;;;23.50;98.70;;;;;;5033165;28;20173;-85
2021/08/11 10:55:57;;;;;;;0.00;0.00;;;23.70;97.00;;;;;;5045370;28;20182;-84
2021/08/11 10:58:46;;;;;;;0.00;0.00;;;23.40;97.60;;;;;;5042035;28;20048;-84
2021/08/11 11:01:34;;;;;;;0.00;0.00;;;23.60;97.60;;;;;;5030563;28;20040;-81
2021/08/11 11:04:36;;;;;;;0.00;0.00;;;23.70;97.00;;;;;;5043987;28;20041;-84
2021/08/11 11:07:25;;;;;;;0.00;0.00;;;23.50;97.60;;;;;;5047159;28;20043;-84
2021/08/11 11:10:34;;;;;;;0.00;0.00;;;23.40;98.10;;;;;;5030966;28;20048;-82
2021/08/11 11:13:41;;;;;;;0.00;0.00;;;23.60;98.90;;;;;;5044854;28;20045;-83
2021/08/11 11:17:01;;;;;;;0.00;0.00;;;23.60;97.70;;;;;;5028501;28;20416;-84
2021/08/11 11:20:25;;;;;;;0.00;0.00;;;23.40;98.00;;;;;;5032562;28;20053;-83
2021/08/11 11:23:31;;;;;;;0.00;0.00;;;23.60;99.00;;;;;;5038405;28;20037;-83
2021/08/11 11:26:31;;;;;;;0.00;0.00;;;23.70;99.20;;;;;;5056784;28;20551;-83
2021/08/11 11:29:19;;;;;;;0.00;0.00;;;23.70;99.70;;;;;;5032081;28;20041;-84
2021/08/11 11:32:23;;;;;;;0.00;0.00;;;23.90;99.70;;;;;;5044676;28;20049;-84
2021/08/11 11:35:15;;;;;;;0.00;0.00;;;24.10;98.50;;;;;;5029683;28;20041;-83
2021/08/11 11:38:06;;;;;;;0.00;0.00;;;23.80;98.40;;;;;;5041129;28;20408;-82
2021/08/11 11:41:07;;;;;;;0.00;0.00;;;23.80;97.80;;;;;;5031497;28;20051;-85
2021/08/11 11:43:56;;;;;;;0.00;0.00;;;23.80;98.80;;;;;;5033297;28;20045;-85
2021/08/11 11:46:47;;;;;;;0.00;0.00;;;23.80;98.50;;;;;;5037496;28;20415;-84
2021/08/11 11:49:34;;;;;;;0.00;0.00;;;23.80;96.60;;;;;;5036748;28;20584;-83
2021/08/11 11:52:22;;;;;;;0.00;0.00;;;25.70;99.20;;;;;;5030819;28;20049;-85
2021/08/11 11:55:09;;;;;;;0.00;0.00;;;23.70;97.10;;;;;;5048224;28;20116;-81
2021/08/11 11:58:01;;;;;;;0.00;0.00;;;23.70;97.40;;;;;;5034879;28;20611;-84
2021/08/11 12:00:59;;;;;;;0.00;0.00;;;23.80;97.50;;;;;;5033623;28;20041;-83
2021/08/11 12:03:51;;;;;;;0.00;0.00;;;24.00;97.90;;;;;;5034631;28;20045;-85
2021/08/11 12:06:44;;;;;;;0.00;0.00;;;24.10;96.40;;;;;;5035519;28;20124;-84
2021/08/11 12:09:43;;;;;;;0.00;0.00;;;24.20;97.90;;;;;;5028055;28;20508;-84
2021/08/11 12:12:31;;;;;;;0.00;0.00;;;24.30;97.70;;;;;;5045574;28;20049;-84
2021/08/11 12:15:21;;;;;;;0.00;0.00;;;24.20;96.40;;;;;;5046113;28;20468;-83
2021/08/11 12:18:14;;;;;;;0.00;0.00;;;24.10;97.10;;;;;;5035172;28;20090;-81
2021/08/11 12:21:02;;;;;;;0.00;0.00;;;23.70;97.90;;;;;;5056262;28;20147;-82
2021/08/11 12:23:50;;;;;;;0.00;0.00;;;23.80;98.20;;;;;;5031659;28;20052;-84
2021/08/11 12:26:39;;;;;;;0.00;0.00;;;23.90;97.70;;;;;;5050352;28;20103;-84
2021/08/11 12:29:27;;;;;;;0.00;0.00;;;24.00;99.10;;;;;;5031398;28;20845;-84
2021/08/11 12:32:15;;;;;;;0.00;0.00;;;24.10;97.50;;;;;;5047459;28;20041;-83
2021/08/11 12:35:04;;;;;;;0.00;0.00;;;24.10;97.20;;;;;;5042979;28;20155;-84
2021/08/11 12:37:51;;;;;;;0.00;0.00;;;24.20;98.60;;;;;;5040443;28;20344;-82
2021/08/11 12:40:40;;;;;;;0.00;0.00;;;24.40;97.20;;;;;;5027312;28;20134;-81
2021/08/11 12:43:37;;;;;;;0.00;0.00;;;24.50;96.80;;;;;;5048657;28;20106;-82
2021/08/11 12:46:38;;;;;;;0.00;0.00;;;24.20;95.20;;;;;;5040827;28;20187;-83
2021/08/11 12:49:37;;;;;;;0.00;0.00;;;24.20;95.80;;;;;;5045934;28;20086;-83
2021/08/11 12:52:26;;;;;;;0.00;0.00;;;24.20;97.40;;;;;;5030821;28;20159;-84
2021/08/11 12:55:13;;;;;;;0.00;0.00;;;24.20;97.70;;;;;;5043504;28;20068;-81
2021/08/11 12:58:01;;;;;;;0.00;0.00;;;25.30;97.20;;;;;;5052484;28;20068;-81
2021/08/11 13:00:53;;;;;;;0.00;0.00;;;24.50;95.60;;;;;;5036274;28;20614;-83
2021/08/11 13:03:44;;;;;;;0.00;0.00;;;24.60;96.60;;;;;;5050431;28;20044;-80
2021/08/11 13:06:38;;;;;;;0.00;0.00;;;24.50;96.50;;;;;;5033904;28;20033;-84
2021/08/11 13:09:27;;;;;;;0.00;0.00;;;24.50;95.10;;;;;;5049539;28;20048;-82
2021/08/11 13:12:27;;;;;;;0.00;0.00;;;24.40;94.50;;;;;;5053080;28;20147;-84
2021/08/11 13:15:25;;;;;;;0.00;0.00;;;23.80;94.30;;;;;;5046420;28;20522;-83
2021/08/11 13:18:23;;;;;;;0.00;0.00;;;23.70;95.30;;;;;;5037288;28;20105;-83
2021/08/11 13:21:10;;;;;;;0.00;0.00;;;23.60;95.40;;;;;;5041300;28;20354;-83
2021/08/11 13:23:59;;;;;;;0.00;0.00;;;23.50;94.40;;;;;;5031880;28;20581;-83
2021/08/11 13:26:49;;;;;;;0.00;0.00;;;23.30;95.80;;;;;;5038400;28;20099;-82
2021/08/11 13:29:36;;;;;;;0.00;0.00;;;23.60;96.60;;;;;;5024752;28;20055;-82
2021/08/11 13:32:23;;;;;;;0.00;0.00;;;23.90;96.10;;;;;;5025071;28;20127;-83
2021/08/11 13:35:11;;;;;;;0.00;0.00;;;24.00;94.80;;;;;;5026965;28;20049;-81
2021/08/11 13:37:59;;;;;;;0.00;0.00;;;23.80;94.40;;;;;;5030685;28;20040;-80
2021/08/11 13:40:48;;;;;;;0.00;0.00;;;24.00;93.90;;;;;;5045036;28;20051;-82
2021/08/11 13:43:35;;;;;;;0.00;0.00;;;24.80;94.30;;;;;;5042261;28;20091;-83
2021/08/11 13:46:22;;;;;;;0.00;0.00;;;23.90;94.40;;;;;;5042966;28;20508;-83
2021/08/11 13:49:11;;;;;;;0.00;0.00;;;24.10;93.40;;;;;;5022912;28;20383;-84
2021/08/11 13:51:58;;;;;;;0.00;0.00;;;24.20;93.50;;;;;;5024004;28;20049;-83
2021/08/11 13:54:45;;;;;;;0.00;0.00;;;24.30;93.50;;;;;;5041605;28;20098;-81
2021/08/11 13:57:34;;;;;;;0.00;0.00;;;24.70;93.40;;;;;;5031722;28;20076;-81
2021/08/11 14:00:22;;;;;;;0.00;0.00;;;25.10;93.20;;;;;;5036967;28;20111;-83
2021/08/11 14:03:09;;;;;;;0.00;0.00;;;25.00;91.80;;;;;;5025499;28;20045;-83
2021/08/11 14:05:57;;;;;;;0.00;0.00;;;24.80;92.40;;;;;;5030985;28;20037;-79
2021/08/11 14:08:44;;;;;;;0.00;0.00;;;24.60;92.40;;;;;;5040027;28;20041;-83
2021/08/11 14:11:32;;;;;;;0.00;0.00;;;24.80;92.60;;;;;;5027004;28;20045;-83
2021/08/11 14:14:21;;;;;;;0.00;0.00;;;25.40;92.50;;;;;;5022853;28;20638;-81
2021/08/11 14:17:10;;;;;;;0.00;0.00;;;25.90;92.10;;;;;;5039261;28;20049;-84
2021/08/11 14:19:57;;;;;;;0.00;0.00;;;26.10;91.80;;;;;;5027562;28;20052;-83
2021/08/11 14:22:44;;;;;;;0.00;0.00;;;26.50;92.80;;;;;;5042561;28;20134;-83
2021/08/11 14:25:31;;;;;;;0.00;0.00;;;26.90;92.70;;;;;;5028135;28;20045;-82
2021/08/11 14:28:18;;;;;;;0.00;0.00;;;27.00;90.50;;;;;;5025139;28;20373;-83
2021/08/11 14:31:06;;;;;;;0.00;0.00;;;26.90;91.30;;;;;;5026570;28;20047;-84
2021/08/11 14:33:54;;;;;;;0.00;0.00;;;26.40;92.50;;;;;;5037675;28;20485;-84
2021/08/11 14:36:41;;;;;;;0.00;0.00;;;26.20;92.70;;;;;;5023853;28;20128;-82
2021/08/11 14:39:29;;;;;;;0.00;0.00;;;26.10;92.90;;;;;;5042460;28;20531;-84
2021/08/11 14:42:16;;;;;;;0.00;0.00;;;26.10;92.60;;;;;;5026755;28;20184;-82